sensor_id;sensor_type;location;lat;lon;timestamp;P1;durP1;ratioP1;P2;durP2;ratioP2
38725;SDS011;24474;48.906;8.808;2023-09-30T00:01:26;3.55;;;1.60;;
38725;SDS011;24474;48.906;8.808;2023-09-30T00:03:53;5.40;;;2.05;;
38725;SDS011;24474;48.906;8.808;2023-09-30T00:06:20;5.13;;;1.80;;
38725;SDS011;24474;48.906;8.808;2023-09-30T00:08:47;5.32;;;1.67;;
38725;SDS011;24474;48.906;8.808;2023-09-30T00:11:16;5.63;;;1.70;;
38725;SDS011;24474;48.906;8.808;2023-09-30T00:13:42;3.72;;;1.67;;
38725;SDS011;24474;48.906;8.808;2023-09-30T00:16:09;5.00;;;1.77;;
38725;SDS011;24474;48.906;8.808;2023-09-30T00:18:34;5.75;;;1.60;;
38725;SDS011;24474;48.906;8.808;2023-09-30T00:21:00;5.53;;;1.83;;
38725;SDS011;24474;48.906;8.808;2023-09-30T00:23:26;4.10;;;1.85;;
38725;SDS011;24474;48.906;8.808;2023-09-30T00:25:54;4.35;;;1.63;;
38725;SDS011;24474;48.906;8.808;2023-09-30T00:28:20;5.45;;;1.67;;
38725;SDS011;24474;48.906;8.808;2023-09-30T00:30:47;4.15;;;1.80;;
38725;SDS011;24474;48.906;8.808;2023-09-30T00:33:13;8.75;;;2.30;;
38725;SDS011;24474;48.906;8.808;2023-09-30T00:35:41;3.92;;;1.92;;
38725;SDS011;24474;48.906;8.808;2023-09-30T00:38:07;3.55;;;1.70;;
38725;SDS011;24474;48.906;8.808;2023-09-30T00:40:34;5.53;;;2.15;;
38725;SDS011;24474;48.906;8.808;2023-09-30T00:43:00;5.50;;;2.30;;
38725;SDS011;24474;48.906;8.808;2023-09-30T00:45:28;6.35;;;2.42;;
38725;SDS011;24474;48.906;8.808;2023-09-30T00:47:54;5.25;;;2.42;;
38725;SDS011;24474;48.906;8.808;2023-09-30T00:50:20;3.72;;;1.90;;
38725;SDS011;24474;48.906;8.808;2023-09-30T00:52:48;5.47;;;2.33;;
38725;SDS011;24474;48.906;8.808;2023-09-30T00:55:16;7.07;;;2.53;;
38725;SDS011;24474;48.906;8.808;2023-09-30T00:57:42;6.88;;;2.53;;
38725;SDS011;24474;48.906;8.808;2023-09-30T01:00:09;4.32;;;2.40;;
38725;SDS011;24474;48.906;8.808;2023-09-30T01:02:38;5.25;;;2.08;;
38725;SDS011;24474;48.906;8.808;2023-09-30T01:05:07;5.00;;;2.20;;
38725;SDS011;24474;48.906;8.808;2023-09-30T01:07:35;5.97;;;2.30;;
38725;SDS011;24474;48.906;8.808;2023-09-30T01:10:02;6.53;;;2.40;;
38725;SDS011;24474;48.906;8.808;2023-09-30T01:12:30;6.30;;;2.33;;
38725;SDS011;24474;48.906;8.808;2023-09-30T01:14:57;6.13;;;2.50;;
38725;SDS011;24474;48.906;8.808;2023-09-30T01:17:24;6.15;;;2.33;;
38725;SDS011;24474;48.906;8.808;2023-09-30T01:19:50;5.75;;;2.45;;
38725;SDS011;24474;48.906;8.808;2023-09-30T01:22:17;4.55;;;2.25;;
38725;SDS011;24474;48.906;8.808;2023-09-30T01:24:43;5.13;;;2.53;;
38725;SDS011;24474;48.906;8.808;2023-09-30T01:27:10;5.35;;;2.20;;
38725;SDS011;24474;48.906;8.808;2023-09-30T01:29:36;5.28;;;2.55;;
38725;SDS011;24474;48.906;8.808;2023-09-30T01:32:04;6.18;;;2.50;;
38725;SDS011;24474;48.906;8.808;2023-09-30T01:34:34;4.60;;;2.10;;
38725;SDS011;24474;48.906;8.808;2023-09-30T01:37:00;6.57;;;2.40;;
38725;SDS011;24474;48.906;8.808;2023-09-30T01:39:26;4.35;;;2.05;;
38725;SDS011;24474;48.906;8.808;2023-09-30T01:41:51;4.50;;;2.22;;
38725;SDS011;24474;48.906;8.808;2023-09-30T01:44:18;4.78;;;2.10;;
38725;SDS011;24474;48.906;8.808;2023-09-30T01:46:45;4.05;;;1.90;;
38725;SDS011;24474;48.906;8.808;2023-09-30T01:49:12;4.82;;;2.30;;
38725;SDS011;24474;48.906;8.808;2023-09-30T01:51:37;4.20;;;2.33;;
38725;SDS011;24474;48.906;8.808;2023-09-30T01:54:03;3.90;;;1.95;;
38725;SDS011;24474;48.906;8.808;2023-09-30T01:56:30;4.25;;;1.98;;
38725;SDS011;24474;48.906;8.808;2023-09-30T01:58:59;4.30;;;1.90;;
38725;SDS011;24474;48.906;8.808;2023-09-30T02:01:26;5.00;;;2.30;;
38725;SDS011;24474;48.906;8.808;2023-09-30T02:03:54;5.32;;;2.10;;
38725;SDS011;24474;48.906;8.808;2023-09-30T02:06:20;5.57;;;1.90;;
38725;SDS011;24474;48.906;8.808;2023-09-30T02:08:47;4.07;;;1.90;;
38725;SDS011;24474;48.906;8.808;2023-09-30T02:11:13;5.57;;;1.95;;
38725;SDS011;24474;48.906;8.808;2023-09-30T02:13:40;5.57;;;2.40;;
38725;SDS011;24474;48.906;8.808;2023-09-30T02:16:13;5.45;;;2.17;;
38725;SDS011;24474;48.906;8.808;2023-09-30T02:18:39;5.93;;;2.42;;
38725;SDS011;24474;48.906;8.808;2023-09-30T02:21:15;5.63;;;2.08;;
38725;SDS011;24474;48.906;8.808;2023-09-30T02:23:41;5.00;;;2.00;;
38725;SDS011;24474;48.906;8.808;2023-09-30T02:26:06;4.65;;;2.20;;
38725;SDS011;24474;48.906;8.808;2023-09-30T02:28:32;4.20;;;1.77;;
38725;SDS011;24474;48.906;8.808;2023-09-30T02:31:00;4.88;;;2.00;;
38725;SDS011;24474;48.906;8.808;2023-09-30T02:33:27;5.32;;;2.15;;
38725;SDS011;24474;48.906;8.808;2023-09-30T02:35:52;5.57;;;2.25;;
38725;SDS011;24474;48.906;8.808;2023-09-30T02:38:21;6.50;;;2.58;;
38725;SDS011;24474;48.906;8.808;2023-09-30T02:40:51;6.05;;;2.50;;
38725;SDS011;24474;48.906;8.808;2023-09-30T02:43:20;5.97;;;2.47;;
38725;SDS011;24474;48.906;8.808;2023-09-30T02:45:47;3.50;;;1.90;;
38725;SDS011;24474;48.906;8.808;2023-09-30T02:48:14;5.03;;;2.22;;
38725;SDS011;24474;48.906;8.808;2023-09-30T02:50:43;4.10;;;2.03;;
38725;SDS011;24474;48.906;8.808;2023-09-30T02:53:10;5.05;;;2.03;;
38725;SDS011;24474;48.906;8.808;2023-09-30T02:55:38;4.25;;;2.10;;
38725;SDS011;24474;48.906;8.808;2023-09-30T02:58:07;3.75;;;2.20;;
38725;SDS011;24474;48.906;8.808;2023-09-30T03:00:33;5.38;;;1.83;;
38725;SDS011;24474;48.906;8.808;2023-09-30T03:03:01;4.20;;;1.98;;
38725;SDS011;24474;48.906;8.808;2023-09-30T03:05:27;5.05;;;1.75;;
38725;SDS011;24474;48.906;8.808;2023-09-30T03:07:55;4.53;;;1.80;;
38725;SDS011;24474;48.906;8.808;2023-09-30T03:10:23;3.95;;;1.90;;
38725;SDS011;24474;48.906;8.808;2023-09-30T03:12:52;4.72;;;2.10;;
38725;SDS011;24474;48.906;8.808;2023-09-30T03:15:19;7.03;;;2.00;;
38725;SDS011;24474;48.906;8.808;2023-09-30T03:17:47;4.32;;;1.92;;
38725;SDS011;24474;48.906;8.808;2023-09-30T03:20:13;6.28;;;2.25;;
38725;SDS011;24474;48.906;8.808;2023-09-30T03:22:40;4.80;;;2.00;;
38725;SDS011;24474;48.906;8.808;2023-09-30T03:25:09;4.32;;;2.25;;
38725;SDS011;24474;48.906;8.808;2023-09-30T03:27:36;5.18;;;1.95;;
38725;SDS011;24474;48.906;8.808;2023-09-30T03:30:04;5.15;;;1.98;;
38725;SDS011;24474;48.906;8.808;2023-09-30T03:32:30;5.72;;;1.88;;
38725;SDS011;24474;48.906;8.808;2023-09-30T03:34:58;4.10;;;1.77;;
38725;SDS011;24474;48.906;8.808;2023-09-30T03:37:26;4.78;;;2.10;;
38725;SDS011;24474;48.906;8.808;2023-09-30T03:39:57;5.53;;;2.35;;
38725;SDS011;24474;48.906;8.808;2023-09-30T03:42:23;4.70;;;1.90;;
38725;SDS011;24474;48.906;8.808;2023-09-30T03:44:49;4.40;;;2.20;;
38725;SDS011;24474;48.906;8.808;2023-09-30T03:47:18;4.05;;;2.22;;
38725;SDS011;24474;48.906;8.808;2023-09-30T03:49:48;5.25;;;2.22;;
38725;SDS011;24474;48.906;8.808;2023-09-30T03:52:14;5.95;;;2.47;;
38725;SDS011;24474;48.906;8.808;2023-09-30T03:54:40;4.80;;;1.95;;
38725;SDS011;24474;48.906;8.808;2023-09-30T03:57:07;4.75;;;2.25;;
38725;SDS011;24474;48.906;8.808;2023-09-30T03:59:33;5.25;;;2.25;;
38725;SDS011;24474;48.906;8.808;2023-09-30T04:02:00;6.45;;;2.38;;
38725;SDS011;24474;48.906;8.808;2023-09-30T04:04:26;3.75;;;2.22;;
38725;SDS011;24474;48.906;8.808;2023-09-30T04:06:52;4.75;;;2.15;;
38725;SDS011;24474;48.906;8.808;2023-09-30T04:09:17;4.32;;;2.40;;
38725;SDS011;24474;48.906;8.808;2023-09-30T04:11:45;4.70;;;2.22;;
38725;SDS011;24474;48.906;8.808;2023-09-30T04:14:12;6.63;;;2.60;;
38725;SDS011;24474;48.906;8.808;2023-09-30T04:16:39;4.45;;;2.20;;
38725;SDS011;24474;48.906;8.808;2023-09-30T04:19:06;5.82;;;2.40;;
38725;SDS011;24474;48.906;8.808;2023-09-30T04:21:35;5.00;;;2.50;;
38725;SDS011;24474;48.906;8.808;2023-09-30T04:24:04;5.03;;;2.35;;
38725;SDS011;24474;48.906;8.808;2023-09-30T04:26:31;5.68;;;2.22;;
38725;SDS011;24474;48.906;8.808;2023-09-30T04:28:58;6.35;;;2.40;;
38725;SDS011;24474;48.906;8.808;2023-09-30T04:31:26;8.50;;;2.65;;
38725;SDS011;24474;48.906;8.808;2023-09-30T04:33:53;7.50;;;2.33;;
38725;SDS011;24474;48.906;8.808;2023-09-30T04:36:20;4.75;;;2.17;;
38725;SDS011;24474;48.906;8.808;2023-09-30T04:38:47;5.50;;;2.45;;
38725;SDS011;24474;48.906;8.808;2023-09-30T04:41:13;6.90;;;2.50;;
38725;SDS011;24474;48.906;8.808;2023-09-30T04:43:40;5.55;;;2.30;;
38725;SDS011;24474;48.906;8.808;2023-09-30T04:46:08;5.88;;;2.05;;
38725;SDS011;24474;48.906;8.808;2023-09-30T04:48:34;5.93;;;2.22;;
38725;SDS011;24474;48.906;8.808;2023-09-30T04:51:05;5.70;;;2.40;;
38725;SDS011;24474;48.906;8.808;2023-09-30T04:53:31;5.40;;;2.38;;
38725;SDS011;24474;48.906;8.808;2023-09-30T04:56:00;4.18;;;2.08;;
38725;SDS011;24474;48.906;8.808;2023-09-30T04:58:26;5.10;;;2.20;;
38725;SDS011;24474;48.906;8.808;2023-09-30T05:00:55;3.72;;;1.80;;
38725;SDS011;24474;48.906;8.808;2023-09-30T05:03:21;3.67;;;2.20;;
38725;SDS011;24474;48.906;8.808;2023-09-30T05:05:47;5.93;;;2.38;;
38725;SDS011;24474;48.906;8.808;2023-09-30T05:08:13;4.38;;;2.00;;
38725;SDS011;24474;48.906;8.808;2023-09-30T05:10:39;4.40;;;2.03;;
38725;SDS011;24474;48.906;8.808;2023-09-30T05:13:04;4.82;;;2.15;;
38725;SDS011;24474;48.906;8.808;2023-09-30T05:15:30;3.80;;;2.08;;
38725;SDS011;24474;48.906;8.808;2023-09-30T05:17:57;6.78;;;2.25;;
38725;SDS011;24474;48.906;8.808;2023-09-30T05:20:25;8.15;;;2.20;;
38725;SDS011;24474;48.906;8.808;2023-09-30T05:22:50;7.38;;;2.50;;
38725;SDS011;24474;48.906;8.808;2023-09-30T05:25:16;6.00;;;2.58;;
38725;SDS011;24474;48.906;8.808;2023-09-30T05:27:42;5.97;;;2.70;;
38725;SDS011;24474;48.906;8.808;2023-09-30T05:30:09;6.72;;;2.72;;
38725;SDS011;24474;48.906;8.808;2023-09-30T05:32:36;6.53;;;2.90;;
38725;SDS011;24474;48.906;8.808;2023-09-30T05:35:05;5.35;;;2.78;;
38725;SDS011;24474;48.906;8.808;2023-09-30T05:37:41;7.68;;;2.53;;
38725;SDS011;24474;48.906;8.808;2023-09-30T05:40:09;6.15;;;2.35;;
38725;SDS011;24474;48.906;8.808;2023-09-30T05:42:47;5.78;;;2.67;;
38725;SDS011;24474;48.906;8.808;2023-09-30T05:45:16;5.35;;;2.60;;
38725;SDS011;24474;48.906;8.808;2023-09-30T05:47:41;5.25;;;2.50;;
38725;SDS011;24474;48.906;8.808;2023-09-30T05:50:11;7.28;;;2.60;;
38725;SDS011;24474;48.906;8.808;2023-09-30T05:52:41;4.45;;;2.50;;
38725;SDS011;24474;48.906;8.808;2023-09-30T05:55:07;7.60;;;2.80;;
38725;SDS011;24474;48.906;8.808;2023-09-30T05:57:34;7.78;;;2.60;;
38725;SDS011;24474;48.906;8.808;2023-09-30T06:00:01;6.72;;;2.42;;
38725;SDS011;24474;48.906;8.808;2023-09-30T06:02:46;5.38;;;2.25;;
38725;SDS011;24474;48.906;8.808;2023-09-30T06:05:12;6.43;;;2.78;;
38725;SDS011;24474;48.906;8.808;2023-09-30T06:07:42;6.35;;;2.65;;
38725;SDS011;24474;48.906;8.808;2023-09-30T06:10:11;6.43;;;2.53;;
38725;SDS011;24474;48.906;8.808;2023-09-30T06:12:37;5.63;;;2.63;;
38725;SDS011;24474;48.906;8.808;2023-09-30T06:15:08;4.70;;;2.25;;
38725;SDS011;24474;48.906;8.808;2023-09-30T06:17:35;4.28;;;2.40;;
38725;SDS011;24474;48.906;8.808;2023-09-30T06:20:04;8.30;;;2.75;;
38725;SDS011;24474;48.906;8.808;2023-09-30T06:22:42;5.50;;;2.85;;
38725;SDS011;24474;48.906;8.808;2023-09-30T06:25:12;9.52;;;2.75;;
38725;SDS011;24474;48.906;8.808;2023-09-30T06:27:38;7.10;;;3.03;;
38725;SDS011;24474;48.906;8.808;2023-09-30T06:30:06;6.57;;;2.90;;
38725;SDS011;24474;48.906;8.808;2023-09-30T06:32:33;4.45;;;2.50;;
38725;SDS011;24474;48.906;8.808;2023-09-30T06:35:00;5.97;;;2.53;;
38725;SDS011;24474;48.906;8.808;2023-09-30T06:37:28;8.00;;;2.75;;
38725;SDS011;24474;48.906;8.808;2023-09-30T06:39:58;5.65;;;2.63;;
38725;SDS011;24474;48.906;8.808;2023-09-30T06:42:27;5.55;;;2.60;;
38725;SDS011;24474;48.906;8.808;2023-09-30T06:44:53;7.53;;;3.38;;
38725;SDS011;24474;48.906;8.808;2023-09-30T06:47:19;6.28;;;2.92;;
38725;SDS011;24474;48.906;8.808;2023-09-30T06:49:47;6.78;;;3.30;;
38725;SDS011;24474;48.906;8.808;2023-09-30T06:52:13;7.32;;;2.88;;
38725;SDS011;24474;48.906;8.808;2023-09-30T06:54:40;6.28;;;2.88;;
38725;SDS011;24474;48.906;8.808;2023-09-30T06:57:05;6.47;;;3.00;;
38725;SDS011;24474;48.906;8.808;2023-09-30T06:59:35;4.40;;;2.50;;
38725;SDS011;24474;48.906;8.808;2023-09-30T07:02:02;6.55;;;3.00;;
38725;SDS011;24474;48.906;8.808;2023-09-30T07:04:30;5.88;;;3.28;;
38725;SDS011;24474;48.906;8.808;2023-09-30T07:06:56;7.53;;;3.88;;
38725;SDS011;24474;48.906;8.808;2023-09-30T07:09:22;6.28;;;3.63;;
38725;SDS011;24474;48.906;8.808;2023-09-30T07:11:47;6.53;;;4.00;;
38725;SDS011;24474;48.906;8.808;2023-09-30T07:14:14;8.90;;;4.47;;
38725;SDS011;24474;48.906;8.808;2023-09-30T07:16:40;8.00;;;3.83;;
38725;SDS011;24474;48.906;8.808;2023-09-30T07:19:06;8.73;;;4.47;;
38725;SDS011;24474;48.906;8.808;2023-09-30T07:21:33;8.75;;;4.28;;
38725;SDS011;24474;48.906;8.808;2023-09-30T07:23:59;8.70;;;3.80;;
38725;SDS011;24474;48.906;8.808;2023-09-30T07:26:25;7.97;;;4.07;;
38725;SDS011;24474;48.906;8.808;2023-09-30T07:28:52;9.15;;;4.78;;
38725;SDS011;24474;48.906;8.808;2023-09-30T07:31:20;7.45;;;4.22;;
38725;SDS011;24474;48.906;8.808;2023-09-30T07:33:48;9.68;;;4.90;;
38725;SDS011;24474;48.906;8.808;2023-09-30T07:36:14;10.32;;;5.22;;
38725;SDS011;24474;48.906;8.808;2023-09-30T07:38:40;10.73;;;5.05;;
38725;SDS011;24474;48.906;8.808;2023-09-30T07:41:05;11.80;;;5.90;;
38725;SDS011;24474;48.906;8.808;2023-09-30T07:43:31;11.55;;;6.13;;
38725;SDS011;24474;48.906;8.808;2023-09-30T07:45:56;9.57;;;5.78;;
38725;SDS011;24474;48.906;8.808;2023-09-30T07:48:23;10.68;;;5.93;;
38725;SDS011;24474;48.906;8.808;2023-09-30T07:50:51;11.18;;;6.40;;
38725;SDS011;24474;48.906;8.808;2023-09-30T07:53:16;11.82;;;5.88;;
38725;SDS011;24474;48.906;8.808;2023-09-30T07:55:42;11.45;;;5.97;;
38725;SDS011;24474;48.906;8.808;2023-09-30T07:58:09;13.63;;;5.78;;
38725;SDS011;24474;48.906;8.808;2023-09-30T08:00:34;7.70;;;5.25;;
38725;SDS011;24474;48.906;8.808;2023-09-30T08:03:01;11.95;;;4.90;;
38725;SDS011;24474;48.906;8.808;2023-09-30T08:05:27;10.57;;;5.40;;
38725;SDS011;24474;48.906;8.808;2023-09-30T08:07:54;11.43;;;5.90;;
38725;SDS011;24474;48.906;8.808;2023-09-30T08:10:21;12.27;;;6.70;;
38725;SDS011;24474;48.906;8.808;2023-09-30T08:12:48;12.82;;;5.65;;
38725;SDS011;24474;48.906;8.808;2023-09-30T08:15:15;12.98;;;6.03;;
38725;SDS011;24474;48.906;8.808;2023-09-30T08:17:44;10.57;;;5.07;;
38725;SDS011;24474;48.906;8.808;2023-09-30T08:20:14;10.52;;;5.40;;
38725;SDS011;24474;48.906;8.808;2023-09-30T08:22:39;10.77;;;5.13;;
38725;SDS011;24474;48.906;8.808;2023-09-30T08:25:06;9.77;;;5.07;;
38725;SDS011;24474;48.906;8.808;2023-09-30T08:27:32;10.52;;;4.95;;
38725;SDS011;24474;48.906;8.808;2023-09-30T08:29:59;9.02;;;4.70;;
38725;SDS011;24474;48.906;8.808;2023-09-30T08:32:26;9.00;;;4.35;;
38725;SDS011;24474;48.906;8.808;2023-09-30T08:34:52;16.85;;;5.43;;
38725;SDS011;24474;48.906;8.808;2023-09-30T08:37:19;11.93;;;5.28;;
38725;SDS011;24474;48.906;8.808;2023-09-30T08:39:49;12.75;;;4.93;;
38725;SDS011;24474;48.906;8.808;2023-09-30T08:42:18;10.40;;;4.70;;
38725;SDS011;24474;48.906;8.808;2023-09-30T08:44:46;11.98;;;5.10;;
38725;SDS011;24474;48.906;8.808;2023-09-30T08:47:13;8.68;;;4.10;;
38725;SDS011;24474;48.906;8.808;2023-09-30T08:49:41;9.52;;;3.70;;
38725;SDS011;24474;48.906;8.808;2023-09-30T08:52:09;11.48;;;4.10;;
38725;SDS011;24474;48.906;8.808;2023-09-30T08:54:36;9.70;;;3.80;;
38725;SDS011;24474;48.906;8.808;2023-09-30T08:57:03;8.27;;;4.00;;
38725;SDS011;24474;48.906;8.808;2023-09-30T08:59:30;9.52;;;3.75;;
38725;SDS011;24474;48.906;8.808;2023-09-30T09:01:57;7.72;;;3.67;;
38725;SDS011;24474;48.906;8.808;2023-09-30T09:04:24;8.38;;;3.50;;
38725;SDS011;24474;48.906;8.808;2023-09-30T09:06:53;10.38;;;3.78;;
38725;SDS011;24474;48.906;8.808;2023-09-30T09:09:20;11.30;;;3.80;;
38725;SDS011;24474;48.906;8.808;2023-09-30T09:11:48;8.75;;;3.80;;
38725;SDS011;24474;48.906;8.808;2023-09-30T09:14:13;6.57;;;3.30;;
38725;SDS011;24474;48.906;8.808;2023-09-30T09:16:54;7.65;;;3.10;;
38725;SDS011;24474;48.906;8.808;2023-09-30T09:19:20;7.13;;;3.03;;
38725;SDS011;24474;48.906;8.808;2023-09-30T09:21:58;7.93;;;3.38;;
38725;SDS011;24474;48.906;8.808;2023-09-30T09:24:36;6.32;;;3.10;;
38725;SDS011;24474;48.906;8.808;2023-09-30T09:27:07;8.25;;;3.35;;
38725;SDS011;24474;48.906;8.808;2023-09-30T09:29:34;9.05;;;3.35;;
38725;SDS011;24474;48.906;8.808;2023-09-30T09:32:12;7.57;;;3.30;;
38725;SDS011;24474;48.906;8.808;2023-09-30T09:34:39;6.93;;;3.45;;
38725;SDS011;24474;48.906;8.808;2023-09-30T09:37:20;5.47;;;2.42;;
38725;SDS011;24474;48.906;8.808;2023-09-30T09:44:59;5.80;;;2.40;;
38725;SDS011;24474;48.906;8.808;2023-09-30T09:47:29;6.13;;;2.45;;
38725;SDS011;24474;48.906;8.808;2023-09-30T09:49:56;6.85;;;3.10;;
38725;SDS011;24474;48.906;8.808;2023-09-30T09:52:24;8.70;;;3.65;;
38725;SDS011;24474;48.906;8.808;2023-09-30T09:54:50;9.13;;;3.50;;
38725;SDS011;24474;48.906;8.808;2023-09-30T09:57:17;6.82;;;2.90;;
38725;SDS011;24474;48.906;8.808;2023-09-30T09:59:46;8.15;;;3.20;;
38725;SDS011;24474;48.906;8.808;2023-09-30T10:02:14;6.50;;;2.75;;
38725;SDS011;24474;48.906;8.808;2023-09-30T10:04:42;8.55;;;3.30;;
38725;SDS011;24474;48.906;8.808;2023-09-30T10:07:12;7.72;;;3.08;;
38725;SDS011;24474;48.906;8.808;2023-09-30T10:09:49;6.63;;;3.03;;
38725;SDS011;24474;48.906;8.808;2023-09-30T10:12:17;6.78;;;2.90;;
38725;SDS011;24474;48.906;8.808;2023-09-30T10:14:44;5.03;;;2.80;;
38725;SDS011;24474;48.906;8.808;2023-09-30T10:17:09;7.85;;;3.30;;
38725;SDS011;24474;48.906;8.808;2023-09-30T10:19:35;12.25;;;3.20;;
38725;SDS011;24474;48.906;8.808;2023-09-30T10:24:49;9.13;;;3.33;;
38725;SDS011;24474;48.906;8.808;2023-09-30T10:30:06;8.15;;;3.00;;
38725;SDS011;24474;48.906;8.808;2023-09-30T10:40:47;8.52;;;3.00;;
38725;SDS011;24474;48.906;8.808;2023-09-30T10:46:01;6.47;;;2.85;;
38725;SDS011;24474;48.906;8.808;2023-09-30T10:50:56;7.78;;;3.17;;
38725;SDS011;24474;48.906;8.808;2023-09-30T10:53:25;8.45;;;3.10;;
38725;SDS011;24474;48.906;8.808;2023-09-30T10:55:59;7.43;;;3.10;;
38725;SDS011;24474;48.906;8.808;2023-09-30T11:01:20;6.38;;;3.08;;
38725;SDS011;24474;48.906;8.808;2023-09-30T11:03:47;6.40;;;3.20;;
38725;SDS011;24474;48.906;8.808;2023-09-30T11:06:19;8.85;;;3.10;;
38725;SDS011;24474;48.906;8.808;2023-09-30T11:08:50;7.45;;;3.65;;
38725;SDS011;24474;48.906;8.808;2023-09-30T11:14:23;6.57;;;3.33;;
38725;SDS011;24474;48.906;8.808;2023-09-30T11:16:54;8.73;;;3.38;;
38725;SDS011;24474;48.906;8.808;2023-09-30T11:19:35;9.20;;;3.92;;
38725;SDS011;24474;48.906;8.808;2023-09-30T11:22:10;7.72;;;3.40;;
38725;SDS011;24474;48.906;8.808;2023-09-30T11:24:37;7.72;;;3.22;;
38725;SDS011;24474;48.906;8.808;2023-09-30T11:27:04;9.48;;;3.67;;
38725;SDS011;24474;48.906;8.808;2023-09-30T11:29:30;7.22;;;3.50;;
38725;SDS011;24474;48.906;8.808;2023-09-30T11:32:00;9.50;;;4.32;;
38725;SDS011;24474;48.906;8.808;2023-09-30T11:34:31;10.30;;;4.10;;
38725;SDS011;24474;48.906;8.808;2023-09-30T11:37:03;8.95;;;3.72;;
38725;SDS011;24474;48.906;8.808;2023-09-30T11:39:30;10.23;;;4.20;;
38725;SDS011;24474;48.906;8.808;2023-09-30T11:41:59;9.23;;;3.83;;
38725;SDS011;24474;48.906;8.808;2023-09-30T11:44:27;7.82;;;3.53;;
38725;SDS011;24474;48.906;8.808;2023-09-30T11:46:59;8.02;;;3.80;;
38725;SDS011;24474;48.906;8.808;2023-09-30T11:49:33;9.10;;;4.22;;
38725;SDS011;24474;48.906;8.808;2023-09-30T11:52:07;9.35;;;3.72;;
38725;SDS011;24474;48.906;8.808;2023-09-30T11:57:07;7.45;;;3.55;;
38725;SDS011;24474;48.906;8.808;2023-09-30T11:59:38;8.27;;;3.30;;
38725;SDS011;24474;48.906;8.808;2023-09-30T12:02:05;6.85;;;3.25;;
38725;SDS011;24474;48.906;8.808;2023-09-30T12:04:37;7.85;;;3.55;;
38725;SDS011;24474;48.906;8.808;2023-09-30T12:07:03;8.57;;;3.83;;
38725;SDS011;24474;48.906;8.808;2023-09-30T12:09:29;8.98;;;3.53;;
38725;SDS011;24474;48.906;8.808;2023-09-30T12:11:56;7.55;;;3.60;;
38725;SDS011;24474;48.906;8.808;2023-09-30T12:14:23;12.25;;;4.28;;
38725;SDS011;24474;48.906;8.808;2023-09-30T12:16:51;9.63;;;3.90;;
38725;SDS011;24474;48.906;8.808;2023-09-30T12:19:17;10.68;;;4.00;;
38725;SDS011;24474;48.906;8.808;2023-09-30T12:21:43;8.13;;;3.88;;
38725;SDS011;24474;48.906;8.808;2023-09-30T12:24:12;10.63;;;3.90;;
38725;SDS011;24474;48.906;8.808;2023-09-30T12:26:46;9.40;;;4.05;;
38725;SDS011;24474;48.906;8.808;2023-09-30T12:29:15;7.85;;;3.63;;
38725;SDS011;24474;48.906;8.808;2023-09-30T12:31:44;8.30;;;3.65;;
38725;SDS011;24474;48.906;8.808;2023-09-30T12:34:10;7.93;;;3.63;;
38725;SDS011;24474;48.906;8.808;2023-09-30T12:36:39;7.78;;;4.05;;
38725;SDS011;24474;48.906;8.808;2023-09-30T12:39:05;7.10;;;3.70;;
38725;SDS011;24474;48.906;8.808;2023-09-30T12:41:36;10.18;;;4.22;;
38725;SDS011;24474;48.906;8.808;2023-09-30T12:44:02;7.10;;;3.53;;
38725;SDS011;24474;48.906;8.808;2023-09-30T12:46:29;7.32;;;3.70;;
38725;SDS011;24474;48.906;8.808;2023-09-30T12:48:57;7.55;;;3.88;;
38725;SDS011;24474;48.906;8.808;2023-09-30T12:51:24;7.50;;;3.45;;
38725;SDS011;24474;48.906;8.808;2023-09-30T12:53:51;6.82;;;3.22;;
38725;SDS011;24474;48.906;8.808;2023-09-30T12:56:18;8.48;;;3.80;;
38725;SDS011;24474;48.906;8.808;2023-09-30T12:58:45;8.98;;;3.90;;
38725;SDS011;24474;48.906;8.808;2023-09-30T13:01:12;8.43;;;3.67;;
38725;SDS011;24474;48.906;8.808;2023-09-30T13:03:39;9.80;;;3.38;;
38725;SDS011;24474;48.906;8.808;2023-09-30T13:06:05;9.57;;;3.95;;
38725;SDS011;24474;48.906;8.808;2023-09-30T13:08:31;8.45;;;4.13;;
38725;SDS011;24474;48.906;8.808;2023-09-30T13:11:02;8.10;;;3.80;;
38725;SDS011;24474;48.906;8.808;2023-09-30T13:13:31;8.48;;;3.78;;
38725;SDS011;24474;48.906;8.808;2023-09-30T13:16:01;9.15;;;4.05;;
38725;SDS011;24474;48.906;8.808;2023-09-30T13:18:31;8.48;;;4.03;;
38725;SDS011;24474;48.906;8.808;2023-09-30T13:20:58;8.35;;;3.22;;
38725;SDS011;24474;48.906;8.808;2023-09-30T13:23:23;9.23;;;3.78;;
38725;SDS011;24474;48.906;8.808;2023-09-30T13:25:49;11.00;;;4.30;;
38725;SDS011;24474;48.906;8.808;2023-09-30T13:28:16;8.18;;;3.78;;
38725;SDS011;24474;48.906;8.808;2023-09-30T13:30:43;8.45;;;3.72;;
38725;SDS011;24474;48.906;8.808;2023-09-30T13:33:12;8.50;;;3.97;;
38725;SDS011;24474;48.906;8.808;2023-09-30T13:35:38;9.05;;;3.33;;
38725;SDS011;24474;48.906;8.808;2023-09-30T13:38:03;8.48;;;3.72;;
38725;SDS011;24474;48.906;8.808;2023-09-30T13:40:29;9.35;;;3.75;;
38725;SDS011;24474;48.906;8.808;2023-09-30T13:42:55;8.13;;;4.00;;
38725;SDS011;24474;48.906;8.808;2023-09-30T13:45:22;8.10;;;3.80;;
38725;SDS011;24474;48.906;8.808;2023-09-30T13:47:49;8.55;;;3.80;;
38725;SDS011;24474;48.906;8.808;2023-09-30T13:50:14;10.98;;;4.05;;
38725;SDS011;24474;48.906;8.808;2023-09-30T13:52:41;8.75;;;3.83;;
38725;SDS011;24474;48.906;8.808;2023-09-30T13:55:08;8.88;;;3.75;;
38725;SDS011;24474;48.906;8.808;2023-09-30T13:57:34;6.38;;;3.40;;
38725;SDS011;24474;48.906;8.808;2023-09-30T14:00:03;13.50;;;4.20;;
38725;SDS011;24474;48.906;8.808;2023-09-30T14:02:31;8.95;;;4.13;;
38725;SDS011;24474;48.906;8.808;2023-09-30T14:04:57;7.68;;;3.25;;
38725;SDS011;24474;48.906;8.808;2023-09-30T14:07:23;8.32;;;4.05;;
38725;SDS011;24474;48.906;8.808;2023-09-30T14:09:49;8.13;;;3.95;;
38725;SDS011;24474;48.906;8.808;2023-09-30T14:12:18;8.52;;;4.00;;
38725;SDS011;24474;48.906;8.808;2023-09-30T14:14:43;8.02;;;3.45;;
38725;SDS011;24474;48.906;8.808;2023-09-30T14:17:10;8.73;;;4.38;;
38725;SDS011;24474;48.906;8.808;2023-09-30T14:19:38;9.68;;;4.53;;
38725;SDS011;24474;48.906;8.808;2023-09-30T14:22:05;9.98;;;4.00;;
38725;SDS011;24474;48.906;8.808;2023-09-30T14:24:32;10.15;;;3.88;;
38725;SDS011;24474;48.906;8.808;2023-09-30T14:27:04;10.45;;;3.90;;
38725;SDS011;24474;48.906;8.808;2023-09-30T14:29:31;9.98;;;4.35;;
38725;SDS011;24474;48.906;8.808;2023-09-30T14:31:57;10.63;;;4.60;;
38725;SDS011;24474;48.906;8.808;2023-09-30T14:34:24;9.18;;;4.47;;
38725;SDS011;24474;48.906;8.808;2023-09-30T14:36:51;8.13;;;3.88;;
38725;SDS011;24474;48.906;8.808;2023-09-30T14:39:18;9.40;;;4.28;;
38725;SDS011;24474;48.906;8.808;2023-09-30T14:41:45;7.75;;;4.25;;
38725;SDS011;24474;48.906;8.808;2023-09-30T14:44:30;12.13;;;4.70;;
38725;SDS011;24474;48.906;8.808;2023-09-30T14:46:56;10.68;;;4.47;;
38725;SDS011;24474;48.906;8.808;2023-09-30T14:49:24;8.35;;;3.72;;
38725;SDS011;24474;48.906;8.808;2023-09-30T14:51:50;8.38;;;4.13;;
38725;SDS011;24474;48.906;8.808;2023-09-30T14:54:15;10.38;;;4.10;;
38725;SDS011;24474;48.906;8.808;2023-09-30T14:56:41;9.60;;;4.28;;
38725;SDS011;24474;48.906;8.808;2023-09-30T14:59:12;7.60;;;3.78;;
38725;SDS011;24474;48.906;8.808;2023-09-30T15:01:39;8.80;;;3.80;;
38725;SDS011;24474;48.906;8.808;2023-09-30T15:04:09;8.13;;;4.25;;
38725;SDS011;24474;48.906;8.808;2023-09-30T15:06:34;9.38;;;4.18;;
38725;SDS011;24474;48.906;8.808;2023-09-30T15:09:01;9.88;;;4.30;;
38725;SDS011;24474;48.906;8.808;2023-09-30T15:11:27;9.57;;;4.50;;
38725;SDS011;24474;48.906;8.808;2023-09-30T15:13:52;14.55;;;4.50;;
38725;SDS011;24474;48.906;8.808;2023-09-30T15:16:20;7.88;;;3.90;;
38725;SDS011;24474;48.906;8.808;2023-09-30T15:18:49;10.00;;;4.07;;
38725;SDS011;24474;48.906;8.808;2023-09-30T15:21:15;7.97;;;3.95;;